Time;durP1;ratioP1;P1;durP2;ratioP2;P2;SDS_P1;SDS_P2;PMS_P1;PMS_P2;Temp;Humidity;BMP_temperature;BMP_pressure;BME280_temperature;BME280_humidity;BME280_pressure;Samples;Min_cycle;Max_cycle;Signal;HPM_P1;HPM_P2
2022/03/29 00:00:12;;;;;;;35.20;14.45;;;7.10;99.90;;;;;;6213718;23;20412;-80
2022/03/29 00:02:39;;;;;;;29.33;12.88;;;7.10;99.90;;;;;;6215728;23;20009;-80
2022/03/29 00:05:05;;;;;;;33.17;14.88;;;7.10;99.90;;;;;;6216104;23;20507;-80
2022/03/29 00:07:31;;;;;;;34.88;15.65;;;7.10;99.90;;;;;;6190727;23;20020;-80
2022/03/29 00:09:56;;;;;;;34.03;13.20;;;7.00;99.90;;;;;;6191212;23;20353;-80
2022/03/29 00:12:23;;;;;;;31.77;13.88;;;7.00;99.90;;;;;;6215479;23;20028;-80
2022/03/29 00:14:48;;;;;;;33.67;14.00;;;6.90;99.90;;;;;;6217523;23;20017;-80
2022/03/29 00:17:14;;;;;;;31.75;13.65;;;6.90;99.90;;;;;;6216954;23;20059;-80
2022/03/29 00:19:39;;;;;;;30.73;13.40;;;6.70;99.90;;;;;;6217252;23;20005;-80
2022/03/29 00:22:05;;;;;;;29.63;13.40;;;6.80;99.90;;;;;;6190909;23;20004;-80
2022/03/29 00:24:30;;;;;;;35.47;13.70;;;6.70;99.90;;;;;;6219112;23;20083;-80
2022/03/29 00:26:56;;;;;;;35.17;12.70;;;6.70;99.90;;;;;;6221126;23;20024;-80
2022/03/29 00:29:21;;;;;;;30.33;13.40;;;6.70;99.90;;;;;;6221329;23;20012;-80
2022/03/29 00:31:47;;;;;;;25.95;13.27;;;6.70;99.90;;;;;;6221341;23;20016;-80
2022/03/29 00:34:12;;;;;;;29.52;13.15;;;6.70;99.90;;;;;;6195814;23;20013;-80
2022/03/29 00:36:38;;;;;;;30.92;13.45;;;6.70;99.90;;;;;;6219985;23;20009;-80
2022/03/29 00:39:03;;;;;;;34.88;15.10;;;6.80;99.90;;;;;;6220277;23;20008;-80
2022/03/29 00:41:29;;;;;;;35.03;15.30;;;6.80;99.90;;;;;;6220172;23;20012;-80
2022/03/29 00:43:54;;;;;;;34.72;13.85;;;6.90;99.90;;;;;;6194597;23;20044;-80
2022/03/29 00:46:20;;;;;;;29.33;12.75;;;6.80;99.90;;;;;;6220363;23;20020;-80
2022/03/29 00:48:46;;;;;;;29.60;12.93;;;6.80;99.90;;;;;;6221753;23;20012;-81
2022/03/29 00:51:12;;;;;;;30.23;11.82;;;6.80;99.90;;;;;;6219155;23;20024;-80
2022/03/29 00:53:38;;;;;;;22.35;10.95;;;6.70;99.90;;;;;;6219842;23;20353;-80
2022/03/29 00:56:04;;;;;;;28.77;12.32;;;6.80;99.90;;;;;;6220060;23;20009;-80
2022/03/29 00:58:30;;;;;;;29.23;12.85;;;6.80;99.90;;;;;;6220571;23;20055;-80
2022/03/29 01:00:58;;;;;;;26.20;12.05;;;6.80;99.90;;;;;;6219362;23;20012;-80
2022/03/29 01:03:24;;;;;;;27.38;12.35;;;6.80;99.90;;;;;;6195288;23;20016;-80
2022/03/29 01:05:50;;;;;;;27.02;13.45;;;6.80;99.90;;;;;;6195533;23;20135;-80
2022/03/29 01:08:15;;;;;;;25.77;12.80;;;6.90;99.90;;;;;;6194477;23;20013;-80
2022/03/29 01:10:44;;;;;;;26.20;11.05;;;6.90;99.90;;;;;;6220028;23;20048;-80
2022/03/29 01:13:09;;;;;;;24.13;11.35;;;7.00;99.90;;;;;;6221694;23;20468;-80
2022/03/29 01:15:37;;;;;;;30.05;13.27;;;6.90;99.90;;;;;;6221125;23;20016;-80
2022/03/29 01:18:05;;;;;;;34.63;14.75;;;6.80;99.90;;;;;;6222011;23;20020;-80
2022/03/29 01:20:32;;;;;;;30.67;15.23;;;6.80;99.90;;;;;;6218814;23;20008;-80
2022/03/29 01:23:01;;;;;;;29.65;13.93;;;6.80;99.90;;;;;;6220912;23;20019;-80
2022/03/29 01:25:39;;;;;;;32.80;13.82;;;6.70;99.90;;;;;;6222820;23;20100;-80
2022/03/29 01:28:05;;;;;;;19.25;10.38;;;6.70;99.90;;;;;;6222735;23;20366;-80
2022/03/29 01:30:32;;;;;;;24.55;12.13;;;6.70;99.90;;;;;;6218847;23;20453;-80
2022/03/29 01:33:00;;;;;;;30.67;13.73;;;6.60;99.90;;;;;;6222264;23;20009;-80
2022/03/29 01:35:27;;;;;;;25.42;12.35;;;6.60;99.90;;;;;;6220607;23;20129;-80
2022/03/29 01:37:54;;;;;;;29.23;12.35;;;6.60;99.90;;;;;;6193694;23;20012;-80
2022/03/29 01:40:22;;;;;;;26.80;13.25;;;6.50;99.90;;;;;;6196141;23;20008;-80
2022/03/29 01:42:56;;;;;;;25.20;12.63;;;6.60;99.90;;;;;;6195426;23;20080;-80
2022/03/29 01:45:27;;;;;;;24.45;11.52;;;6.50;99.90;;;;;;6221119;23;20024;-80
2022/03/29 01:47:52;;;;;;;26.23;12.13;;;6.40;99.90;;;;;;6196609;23;20023;-80
2022/03/29 01:50:18;;;;;;;28.48;12.45;;;6.40;99.90;;;;;;6195551;23;20095;-80
2022/03/29 01:52:45;;;;;;;24.90;12.23;;;6.40;99.90;;;;;;6218754;23;20012;-80
2022/03/29 01:55:15;;;;;;;26.15;13.13;;;6.40;99.90;;;;;;6218260;23;20016;-80
2022/03/29 01:57:40;;;;;;;24.90;12.20;;;6.40;99.90;;;;;;6218803;23;20055;-80
2022/03/29 02:02:53;;;;;;;26.48;12.25;;;6.40;99.90;;;;;;6219432;23;20040;-81
2022/03/29 02:05:20;;;;;;;22.17;12.25;;;6.40;99.90;;;;;;6211675;23;20078;-80
2022/03/29 02:07:45;;;;;;;27.50;13.52;;;6.40;99.90;;;;;;6212267;23;20064;-80
2022/03/29 02:10:15;;;;;;;23.70;12.23;;;6.40;99.90;;;;;;6211514;23;20029;-80
2022/03/29 02:12:41;;;;;;;26.30;12.80;;;6.40;99.90;;;;;;6186921;23;20012;-80
2022/03/29 02:15:07;;;;;;;25.17;13.48;;;6.30;99.90;;;;;;6213792;23;20054;-80
2022/03/29 02:17:33;;;;;;;26.83;11.95;;;6.20;99.90;;;;;;6215241;23;20064;-80
2022/03/29 02:19:58;;;;;;;28.20;13.57;;;6.30;99.90;;;;;;6190599;23;20078;-80
2022/03/29 02:22:24;;;;;;;24.30;12.18;;;6.20;99.90;;;;;;6215747;23;20024;-80
2022/03/29 02:24:50;;;;;;;24.45;11.85;;;6.40;99.90;;;;;;6216357;23;20019;-80
2022/03/29 02:27:16;;;;;;;25.27;12.48;;;6.30;99.90;;;;;;6216124;23;20020;-80
2022/03/29 02:29:41;;;;;;;23.38;11.95;;;6.40;99.90;;;;;;6216416;23;20040;-80
2022/03/29 02:32:08;;;;;;;26.80;13.07;;;6.40;99.90;;;;;;6216281;23;20012;-80
2022/03/29 02:34:34;;;;;;;27.23;13.27;;;6.30;99.90;;;;;;6216833;23;20075;-80
2022/03/29 02:36:59;;;;;;;25.08;12.90;;;6.40;99.90;;;;;;6217443;23;20373;-80
2022/03/29 02:39:25;;;;;;;24.10;12.88;;;6.40;99.90;;;;;;6218830;23;20433;-80
2022/03/29 02:41:50;;;;;;;24.45;12.07;;;6.40;99.90;;;;;;6216702;23;20008;-81
2022/03/29 02:44:16;;;;;;;21.17;10.93;;;6.40;99.90;;;;;;6219061;23;20087;-80
2022/03/29 02:46:44;;;;;;;27.25;12.70;;;6.50;99.90;;;;;;6192378;23;20414;-80
2022/03/29 02:49:09;;;;;;;30.80;13.27;;;6.50;99.90;;;;;;6217404;23;20076;-80
2022/03/29 02:51:35;;;;;;;29.52;13.48;;;6.40;99.90;;;;;;6215337;23;20023;-81
2022/03/29 02:54:00;;;;;;;24.02;12.43;;;6.40;99.90;;;;;;6216382;23;20028;-80
2022/03/29 02:56:26;;;;;;;26.95;13.07;;;6.40;99.90;;;;;;6219049;23;20023;-80
2022/03/29 02:58:51;;;;;;;25.33;12.65;;;6.40;99.90;;;;;;6193293;23;20058;-79
2022/03/29 03:01:18;;;;;;;23.30;12.27;;;6.40;99.90;;;;;;6220146;23;20031;-81
2022/03/29 03:03:43;;;;;;;27.27;14.13;;;6.40;99.90;;;;;;6192489;23;20323;-81
2022/03/29 03:06:10;;;;;;;27.45;13.25;;;6.40;99.90;;;;;;6189248;23;20042;-81
2022/03/29 03:08:35;;;;;;;31.63;13.75;;;6.50;99.90;;;;;;6214593;23;20017;-81
2022/03/29 03:11:01;;;;;;;26.92;13.23;;;6.50;99.90;;;;;;6188839;23;20163;-81
2022/03/29 03:13:26;;;;;;;27.83;13.60;;;6.50;99.90;;;;;;6214833;23;20067;-81
2022/03/29 03:15:52;;;;;;;29.33;14.65;;;6.50;99.90;;;;;;6188709;23;20092;-81
2022/03/29 03:18:18;;;;;;;29.10;13.60;;;6.50;99.90;;;;;;6189863;23;20398;-81
2022/03/29 03:20:44;;;;;;;30.55;14.10;;;6.50;99.90;;;;;;6190145;23;20023;-81
2022/03/29 03:23:09;;;;;;;26.75;14.70;;;6.50;99.90;;;;;;6190560;23;20013;-81
2022/03/29 03:25:35;;;;;;;28.50;14.60;;;6.50;99.90;;;;;;6213908;23;20115;-80
2022/03/29 03:28:00;;;;;;;30.20;14.52;;;6.50;99.90;;;;;;6215078;23;20070;-81
2022/03/29 03:30:26;;;;;;;30.50;14.30;;;6.50;99.90;;;;;;6214805;23;20031;-81
2022/03/29 03:32:54;;;;;;;28.63;14.13;;;6.40;99.90;;;;;;6189299;23;20036;-81
2022/03/29 03:35:20;;;;;;;28.15;13.57;;;6.40;99.90;;;;;;6214404;23;20025;-80
2022/03/29 03:37:46;;;;;;;28.38;13.55;;;6.40;99.90;;;;;;6214915;23;20016;-82
2022/03/29 03:40:12;;;;;;;23.58;12.52;;;6.40;99.90;;;;;;6215424;23;20450;-81
2022/03/29 03:42:38;;;;;;;28.33;13.73;;;6.50;99.90;;;;;;6215493;23;20365;-81
2022/03/29 03:45:06;;;;;;;25.98;12.55;;;6.40;99.90;;;;;;6214708;23;20511;-80
2022/03/29 03:47:32;;;;;;;26.35;12.80;;;6.50;99.90;;;;;;6216395;23;20401;-81
2022/03/29 03:49:58;;;;;;;27.45;11.93;;;6.40;99.90;;;;;;6190011;23;20043;-81
2022/03/29 03:52:23;;;;;;;25.45;12.85;;;6.40;99.90;;;;;;6191613;23;20035;-80
2022/03/29 03:54:49;;;;;;;26.75;12.50;;;6.50;99.90;;;;;;6190032;23;20055;-81
2022/03/29 03:57:15;;;;;;;30.67;14.02;;;6.50;99.90;;;;;;6191148;23;20008;-81
2022/03/29 03:59:41;;;;;;;27.23;12.77;;;6.50;99.90;;;;;;6215599;23;20296;-80
2022/03/29 04:02:06;;;;;;;25.95;12.70;;;6.50;99.90;;;;;;6189317;23;20035;-81
2022/03/29 04:04:32;;;;;;;24.48;11.90;;;6.40;99.90;;;;;;6215988;23;20052;-81
2022/03/29 04:06:57;;;;;;;28.75;13.02;;;6.40;99.90;;;;;;6219997;23;20017;-81
2022/03/29 04:09:24;;;;;;;29.25;13.18;;;6.40;99.90;;;;;;6218372;23;20024;-81
2022/03/29 04:11:50;;;;;;;24.52;12.70;;;6.40;99.90;;;;;;6193051;23;20012;-81
2022/03/29 04:14:16;;;;;;;24.02;12.52;;;6.40;99.90;;;;;;6219439;23;20522;-80
2022/03/29 04:16:41;;;;;;;26.10;13.20;;;6.40;99.90;;;;;;6218674;23;20434;-80
2022/03/29 04:19:07;;;;;;;31.17;13.82;;;6.40;99.90;;;;;;6218522;23;20020;-80
2022/03/29 04:21:32;;;;;;;29.80;13.85;;;6.40;99.90;;;;;;6218955;23;20008;-80
2022/03/29 04:23:58;;;;;;;31.73;14.25;;;6.40;99.90;;;;;;6218994;23;20012;-81
2022/03/29 04:26:23;;;;;;;28.73;12.88;;;6.40;99.90;;;;;;6220595;23;20091;-80
2022/03/29 04:28:49;;;;;;;30.60;13.43;;;6.40;99.90;;;;;;6220985;23;20096;-80
2022/03/29 04:31:14;;;;;;;29.48;14.50;;;6.40;99.90;;;;;;6219122;23;20028;-80
2022/03/29 04:33:40;;;;;;;30.90;13.80;;;6.40;99.90;;;;;;6218603;23;20081;-81
2022/03/29 04:36:06;;;;;;;26.38;13.45;;;6.40;99.90;;;;;;6192830;23;20008;-80
2022/03/29 04:38:32;;;;;;;34.03;13.57;;;6.40;99.90;;;;;;6221893;23;20012;-81
2022/03/29 04:40:58;;;;;;;30.95;14.77;;;6.40;99.90;;;;;;6235715;23;20016;-80
2022/03/29 04:43:23;;;;;;;31.33;14.18;;;6.40;99.90;;;;;;6227696;23;20023;-80
2022/03/29 04:45:49;;;;;;;31.05;13.77;;;6.30;99.90;;;;;;6211191;23;20021;-80
2022/03/29 04:48:14;;;;;;;33.22;16.40;;;6.40;99.90;;;;;;6213074;23;20048;-79
2022/03/29 04:50:41;;;;;;;55.42;25.80;;;6.40;99.90;;;;;;6213182;23;20092;-80
2022/03/29 04:53:07;;;;;;;29.95;14.15;;;6.50;99.90;;;;;;6212900;23;20095;-78
2022/03/29 04:55:33;;;;;;;29.38;14.63;;;6.40;99.90;;;;;;6212753;23;20048;-79
2022/03/29 04:58:00;;;;;;;28.15;13.25;;;6.40;99.90;;;;;;6188166;23;20024;-79
2022/03/29 05:00:26;;;;;;;30.88;13.82;;;6.40;99.90;;;;;;6212902;23;20051;-79
2022/03/29 05:02:52;;;;;;;28.55;13.57;;;6.50;99.90;;;;;;6213025;23;20087;-79
2022/03/29 05:05:18;;;;;;;30.88;14.43;;;6.50;99.90;;;;;;6212959;23;20114;-80
2022/03/29 05:07:44;;;;;;;30.13;14.07;;;6.40;99.90;;;;;;6212869;23;20053;-79
2022/03/29 05:10:11;;;;;;;35.08;14.32;;;6.50;99.90;;;;;;6214459;23;20450;-79
2022/03/29 05:12:45;;;;;;;29.42;13.65;;;6.50;99.90;;;;;;6213140;23;20458;-78
2022/03/29 05:15:13;;;;;;;34.33;14.85;;;6.50;99.90;;;;;;6212641;23;20422;-78
2022/03/29 05:17:39;;;;;;;28.08;14.38;;;6.50;99.90;;;;;;6187845;23;20008;-79
2022/03/29 05:20:07;;;;;;;35.33;14.95;;;6.50;99.90;;;;;;6213056;23;20099;-79
2022/03/29 05:22:51;;;;;;;31.80;15.00;;;6.50;99.90;;;;;;6212839;23;20096;-80
2022/03/29 05:25:18;;;;;;;33.45;14.93;;;6.60;99.90;;;;;;6188868;23;20083;-79
2022/03/29 05:27:45;;;;;;;35.90;16.30;;;6.60;99.90;;;;;;6187971;23;20074;-79
2022/03/29 05:30:11;;;;;;;31.77;15.20;;;6.60;99.90;;;;;;6187863;23;20059;-79
2022/03/29 05:32:37;;;;;;;28.10;13.93;;;6.60;99.90;;;;;;6213342;23;20389;-79
2022/03/29 05:35:05;;;;;;;29.63;14.25;;;6.60;99.90;;;;;;6212470;23;20012;-79
2022/03/29 05:37:31;;;;;;;69.38;32.30;;;6.60;99.90;;;;;;6212802;23;20012;-79
2022/03/29 05:39:56;;;;;;;44.28;19.80;;;6.60;99.90;;;;;;6212965;23;20454;-79
2022/03/29 05:42:22;;;;;;;33.70;15.23;;;6.60;99.90;;;;;;6213457;23;20529;-79
2022/03/29 05:44:48;;;;;;;31.27;15.55;;;6.70;99.90;;;;;;6187700;23;20013;-78
2022/03/29 05:49:57;;;;;;;27.17;13.07;;;6.60;99.90;;;;;;6212733;23;20027;-82
2022/03/29 05:52:24;;;;;;;33.53;14.38;;;6.60;99.90;;;;;;6188682;23;20009;-82
2022/03/29 05:54:50;;;;;;;28.52;13.20;;;6.60;99.90;;;;;;6188288;23;20059;-80
2022/03/29 05:57:17;;;;;;;30.42;13.20;;;6.70;99.90;;;;;;6215802;23;20019;-80
2022/03/29 05:59:43;;;;;;;30.55;13.45;;;6.70;99.90;;;;;;6217744;23;20012;-80
2022/03/29 06:02:10;;;;;;;32.75;15.10;;;6.70;99.90;;;;;;6220090;23;20011;-80
2022/03/29 06:04:36;;;;;;;32.13;14.38;;;6.70;99.90;;;;;;6223771;23;20072;-80
2022/03/29 06:07:04;;;;;;;33.72;15.35;;;6.70;99.90;;;;;;6222556;23;20020;-80
2022/03/29 06:09:30;;;;;;;34.20;14.15;;;6.80;99.90;;;;;;6223551;23;20020;-80
2022/03/29 06:11:56;;;;;;;29.60;13.68;;;6.80;99.90;;;;;;6225843;23;20020;-80
2022/03/29 06:14:22;;;;;;;31.38;15.52;;;6.80;99.90;;;;;;6226260;23;20013;-80
2022/03/29 06:16:47;;;;;;;25.50;13.43;;;6.80;99.90;;;;;;6226778;23;20503;-80
2022/03/29 06:19:13;;;;;;;29.98;14.20;;;6.80;99.90;;;;;;6198961;23;20009;-80
2022/03/29 06:21:40;;;;;;;31.92;14.52;;;6.80;99.90;;;;;;6226112;23;20017;-80
2022/03/29 06:24:08;;;;;;;30.42;13.73;;;6.80;99.90;;;;;;6225515;23;20055;-80
2022/03/29 06:26:37;;;;;;;30.38;14.75;;;6.80;99.90;;;;;;6226688;23;20031;-80
2022/03/29 06:29:03;;;;;;;32.75;14.07;;;6.80;99.90;;;;;;6225569;23;20417;-80
2022/03/29 06:31:29;;;;;;;27.90;13.93;;;6.90;99.90;;;;;;6225725;23;20013;-80
2022/03/29 06:33:55;;;;;;;37.88;15.48;;;6.90;99.90;;;;;;6226135;23;20039;-80
2022/03/29 06:36:20;;;;;;;33.92;14.90;;;6.90;99.90;;;;;;6225646;23;20509;-80
2022/03/29 06:38:46;;;;;;;30.48;14.27;;;7.00;99.90;;;;;;6223359;23;20017;-80
2022/03/29 06:41:13;;;;;;;36.60;15.18;;;7.00;99.90;;;;;;6197164;23;20013;-79
2022/03/29 06:43:39;;;;;;;32.35;15.68;;;7.00;99.90;;;;;;6223675;23;20017;-79
2022/03/29 06:46:07;;;;;;;34.47;16.52;;;7.00;99.90;;;;;;6224201;23;20008;-79
2022/03/29 06:48:33;;;;;;;34.83;14.88;;;7.00;99.90;;;;;;6224733;23;20008;-79
2022/03/29 06:50:59;;;;;;;39.17;16.02;;;7.00;99.90;;;;;;6225779;23;20017;-79
2022/03/29 06:53:24;;;;;;;34.13;15.98;;;6.90;99.90;;;;;;6225182;23;20052;-80
2022/03/29 06:55:51;;;;;;;34.45;14.32;;;6.90;99.90;;;;;;6225156;23;20019;-79
2022/03/29 06:58:17;;;;;;;35.83;15.30;;;7.00;99.90;;;;;;6224688;23;20012;-79
2022/03/29 07:00:43;;;;;;;33.75;15.07;;;7.00;99.90;;;;;;6226365;23;20015;-79
2022/03/29 07:03:10;;;;;;;35.75;15.73;;;7.10;99.90;;;;;;6223441;23;20032;-79
2022/03/29 07:05:38;;;;;;;34.13;15.98;;;7.10;99.90;;;;;;6214763;23;20063;-79
2022/03/29 07:08:05;;;;;;;34.00;15.60;;;7.10;99.90;;;;;;6186562;23;20070;-79
2022/03/29 07:13:15;;;;;;;31.42;13.85;;;7.20;99.90;;;;;;6213442;23;20385;-79
2022/03/29 07:15:40;;;;;;;38.47;16.00;;;7.20;99.90;;;;;;6212326;23;20016;-80
2022/03/29 07:18:06;;;;;;;38.25;15.63;;;7.30;99.90;;;;;;6213081;23;20042;-79
2022/03/29 07:20:32;;;;;;;37.10;15.95;;;7.30;99.90;;;;;;6211692;23;20480;-79
2022/03/29 07:22:58;;;;;;;38.63;16.65;;;7.40;99.90;;;;;;6224671;23;20016;-81
2022/03/29 07:25:25;;;;;;;36.53;16.50;;;7.40;99.90;;;;;;6233958;23;20024;-81
2022/03/29 07:27:53;;;;;;;56.40;25.95;;;7.40;99.90;;;;;;6217165;23;20354;-80
2022/03/29 07:30:20;;;;;;;41.80;17.00;;;7.50;99.90;;;;;;6212401;23;20032;-80
2022/03/29 07:32:48;;;;;;;40.78;17.17;;;7.50;99.90;;;;;;6212825;22;20081;-79
2022/03/29 07:35:16;;;;;;;44.03;18.67;;;7.50;99.90;;;;;;6212735;23;20008;-79
2022/03/29 07:37:42;;;;;;;39.17;17.83;;;7.60;99.90;;;;;;6212892;23;20009;-80
2022/03/29 07:40:10;;;;;;;39.22;17.90;;;7.60;99.90;;;;;;6211160;23;20016;-79
2022/03/29 07:42:36;;;;;;;44.60;18.70;;;7.70;99.90;;;;;;6211284;23;20070;-79
2022/03/29 07:45:03;;;;;;;37.70;17.65;;;7.80;99.90;;;;;;6212906;23;20461;-80
2022/03/29 07:47:29;;;;;;;40.65;17.58;;;8.00;99.90;;;;;;6215442;23;20346;-81
2022/03/29 07:49:55;;;;;;;37.65;16.73;;;8.30;99.90;;;;;;6219585;23;20023;-80
2022/03/29 07:52:21;;;;;;;40.08;16.83;;;8.80;99.90;;;;;;6224248;23;20012;-80
2022/03/29 07:54:47;;;;;;;42.72;19.17;;;9.30;99.90;;;;;;6217375;23;20070;-80
2022/03/29 07:57:12;;;;;;;38.58;17.50;;;9.90;99.90;;;;;;6189685;23;20055;-80
2022/03/29 07:59:38;;;;;;;39.45;15.65;;;10.10;99.90;;;;;;6216141;23;20012;-80
2022/03/29 08:02:05;;;;;;;40.80;17.33;;;10.20;99.90;;;;;;6214715;23;20020;-80
2022/03/29 08:04:31;;;;;;;35.70;16.27;;;10.30;99.90;;;;;;6190285;23;20066;-80
2022/03/29 08:06:57;;;;;;;36.17;16.38;;;10.10;99.90;;;;;;6215957;23;20075;-80
2022/03/29 08:09:22;;;;;;;37.85;17.23;;;9.70;99.90;;;;;;6214605;23;20021;-80
2022/03/29 08:11:48;;;;;;;36.28;16.30;;;9.50;99.90;;;;;;6216016;23;20008;-82
2022/03/29 08:14:14;;;;;;;38.53;16.50;;;9.40;99.90;;;;;;6189476;23;20075;-79
2022/03/29 08:16:41;;;;;;;34.55;15.60;;;9.30;99.90;;;;;;6216378;23;20461;-79
2022/03/29 08:19:07;;;;;;;39.92;17.73;;;9.10;99.90;;;;;;6215155;23;20461;-80
2022/03/29 08:21:50;;;;;;;38.33;15.25;;;9.00;99.90;;;;;;6216391;23;20036;-81
2022/03/29 08:24:21;;;;;;;37.92;16.88;;;9.00;99.90;;;;;;6191868;23;20106;-80
2022/03/29 08:26:48;;;;;;;38.00;15.52;;;9.00;99.90;;;;;;6217832;23;20353;-80
2022/03/29 08:29:17;;;;;;;37.97;15.00;;;9.10;99.90;;;;;;6216308;23;20050;-79
2022/03/29 08:31:44;;;;;;;35.38;16.42;;;9.10;99.90;;;;;;6218160;23;20004;-80
2022/03/29 08:34:11;;;;;;;36.80;15.95;;;9.20;99.90;;;;;;6216857;23;20012;-80
2022/03/29 08:36:38;;;;;;;39.97;17.38;;;9.20;99.90;;;;;;6216978;23;20027;-80
2022/03/29 08:39:05;;;;;;;35.22;15.65;;;9.30;99.90;;;;;;6221795;23;20009;-80
2022/03/29 08:41:36;;;;;;;32.83;14.57;;;9.40;99.90;;;;;;6223780;23;20548;-81
2022/03/29 08:44:03;;;;;;;35.85;15.65;;;9.40;99.90;;;;;;6196274;23;20047;-80
2022/03/29 08:46:38;;;;;;;38.03;15.23;;;9.50;99.90;;;;;;6216772;22;20020;-80
2022/03/29 08:49:05;;;;;;;37.63;17.50;;;9.50;99.90;;;;;;6216308;23;20023;-80
2022/03/29 08:51:31;;;;;;;38.33;16.17;;;9.50;99.90;;;;;;6221385;23;20060;-81
2022/03/29 08:53:57;;;;;;;42.13;16.70;;;9.50;99.90;;;;;;6223488;23;20024;-79
2022/03/29 08:56:23;;;;;;;34.08;15.20;;;9.60;99.90;;;;;;6229936;23;20009;-80
2022/03/29 08:58:48;;;;;;;35.40;16.27;;;9.80;99.90;;;;;;6231189;23;20018;-81
2022/03/29 09:01:19;;;;;;;37.17;17.25;;;10.00;99.90;;;;;;6229560;23;20453;-81
2022/03/29 09:03:44;;;;;;;33.95;15.40;;;10.10;99.90;;;;;;6231962;23;20009;-81
2022/03/29 09:06:10;;;;;;;33.33;15.68;;;10.20;99.90;;;;;;6204740;23;20127;-82
2022/03/29 09:08:46;;;;;;;33.47;16.67;;;10.10;99.90;;;;;;6226080;23;20028;-82
2022/03/29 09:11:13;;;;;;;35.50;16.17;;;10.10;99.90;;;;;;6227828;23;20425;-81
2022/03/29 09:13:40;;;;;;;36.42;14.38;;;10.30;99.90;;;;;;6200580;23;20066;-81
2022/03/29 09:16:10;;;;;;;35.28;15.80;;;10.50;99.90;;;;;;6226248;23;20009;-81
2022/03/29 09:18:37;;;;;;;34.97;15.23;;;10.60;99.90;;;;;;6227527;23;20018;-81
2022/03/29 09:21:11;;;;;;;34.13;15.50;;;10.70;99.90;;;;;;6227748;23;20009;-81
2022/03/29 09:23:37;;;;;;;38.30;16.08;;;10.60;99.90;;;;;;6227147;23;20019;-81
2022/03/29 09:26:04;;;;;;;37.67;16.45;;;10.50;99.90;;;;;;6227110;23;20495;-81
2022/03/29 09:28:34;;;;;;;33.28;15.63;;;10.50;99.90;;;;;;6200534;23;20012;-81
2022/03/29 09:31:00;;;;;;;35.72;16.05;;;10.40;99.90;;;;;;6226835;23;20027;-81
2022/03/29 09:33:31;;;;;;;38.15;16.70;;;10.40;99.90;;;;;;6203785;23;20017;-81
2022/03/29 09:36:04;;;;;;;36.83;16.35;;;10.40;99.90;;;;;;6228369;23;20052;-82
2022/03/29 09:38:30;;;;;;;31.35;16.08;;;10.50;99.90;;;;;;6229364;23;20027;-80
2022/03/29 09:40:57;;;;;;;36.80;17.02;;;10.70;99.90;;;;;;6202009;23;20019;-80
2022/03/29 09:43:26;;;;;;;37.10;16.42;;;11.10;99.90;;;;;;6226152;23;20016;-81
2022/03/29 09:46:00;;;;;;;38.35;15.57;;;11.20;99.90;;;;;;6225995;23;20068;-80
2022/03/29 09:48:44;;;;;;;39.15;16.17;;;11.40;99.90;;;;;;6229738;23;20087;-80
2022/03/29 09:51:10;;;;;;;32.63;16.25;;;11.60;99.90;;;;;;6227736;23;20021;-80
2022/03/29 09:53:50;;;;;;;27.25;15.10;;;11.70;99.90;;;;;;6229510;23;20098;-80
2022/03/29 09:56:25;;;;;;;33.28;15.52;;;12.00;99.90;;;;;;6203460;23;20088;-80
2022/03/29 09:59:08;;;;;;;34.20;15.60;;;12.20;99.90;;;;;;6228840;23;20068;-80
2022/03/29 10:01:46;;;;;;;;;;;12.40;99.90;;;;;;6228609;23;20092;-80
2022/03/29 10:04:13;;;;;;;37.80;15.38;;;12.90;99.90;;;;;;6229268;23;19951;-80
2022/03/29 10:06:40;;;;;;;34.42;15.80;;;13.30;99.90;;;;;;6224601;23;20235;-80
2022/03/29 10:11:50;;;;;;;34.10;15.45;;;12.40;99.90;;;;;;6223914;23;20032;-80
2022/03/29 10:14:20;;;;;;;31.90;15.80;;;12.60;99.90;;;;;;6227448;23;20021;-80
2022/03/29 10:16:47;;;;;;;34.83;17.65;;;12.80;99.90;;;;;;6241039;23;20027;-80
2022/03/29 10:19:13;;;;;;;39.65;15.93;;;12.60;99.90;;;;;;6229691;23;20059;-80
2022/03/29 10:21:41;;;;;;;37.67;15.75;;;12.70;99.90;;;;;;6212760;23;20448;-82
2022/03/29 10:24:07;;;;;;;34.75;15.55;;;12.80;99.90;;;;;;6213009;23;20023;-82
2022/03/29 10:26:34;;;;;;;32.88;13.95;;;12.90;99.90;;;;;;6214567;23;20016;-82
2022/03/29 10:28:59;;;;;;;31.92;15.90;;;12.80;99.90;;;;;;6214719;23;20040;-82
2022/03/29 10:31:26;;;;;;;30.10;13.07;;;12.60;99.90;;;;;;6214597;23;20059;-82
2022/03/29 10:34:10;;;;;;;28.10;14.48;;;12.60;99.90;;;;;;6212644;23;20088;-82
2022/03/29 10:36:58;;;;;;;34.00;14.10;;;12.50;99.90;;;;;;6214794;23;20059;-82
2022/03/29 10:39:56;;;;;;;34.58;15.80;;;12.30;99.90;;;;;;6214283;23;20017;-81
2022/03/29 10:42:42;;;;;;;27.67;13.02;;;12.00;99.90;;;;;;6214404;23;20017;-82
2022/03/29 10:45:19;;;;;;;36.42;13.02;;;11.90;99.90;;;;;;6214427;23;20024;-81
2022/03/29 10:48:09;;;;;;;30.88;13.75;;;11.90;99.90;;;;;;6214760;23;20040;-82
2022/03/29 10:50:53;;;;;;;28.40;13.38;;;12.00;99.90;;;;;;6215150;23;20080;-82
2022/03/29 10:53:36;;;;;;;27.92;13.38;;;12.20;99.90;;;;;;6214595;23;20012;-82
2022/03/29 10:56:15;;;;;;;34.95;12.23;;;12.50;99.90;;;;;;6214286;23;20021;-82
2022/03/29 10:59:02;;;;;;;26.00;12.43;;;12.80;99.90;;;;;;6214641;23;20465;-81
2022/03/29 11:01:29;;;;;;;26.42;12.18;;;12.80;99.90;;;;;;6188443;23;20442;-83
2022/03/29 11:04:19;;;;;;;36.20;12.70;;;12.90;99.90;;;;;;6214584;23;20063;-81
2022/03/29 11:07:04;;;;;;;27.65;13.13;;;13.00;99.90;;;;;;6218706;23;20023;-82
2022/03/29 11:09:30;;;;;;;40.78;16.35;;;13.10;99.90;;;;;;6216757;23;20511;-82
2022/03/29 11:11:56;;;;;;;31.23;13.10;;;13.10;99.90;;;;;;6216662;23;20013;-82
2022/03/29 11:14:38;;;;;;;33.90;14.02;;;13.20;99.90;;;;;;6217407;23;20023;-80
2022/03/29 11:17:09;;;;;;;51.05;20.50;;;13.40;99.90;;;;;;6220452;23;20319;-82
2022/03/29 11:19:49;;;;;;;40.35;16.65;;;13.20;99.90;;;;;;6219578;23;20015;-82
2022/03/29 11:22:29;;;;;;;33.85;13.50;;;12.90;99.90;;;;;;6220637;23;20020;-82
2022/03/29 11:25:00;;;;;;;41.60;18.75;;;13.00;99.90;;;;;;6220319;23;20025;-81
2022/03/29 11:27:34;;;;;;;24.10;12.73;;;13.00;99.90;;;;;;6221541;23;20020;-82
2022/03/29 11:30:01;;;;;;;30.15;13.85;;;13.00;99.90;;;;;;6218429;23;20345;-81
2022/03/29 11:32:27;;;;;;;25.83;12.93;;;13.10;99.90;;;;;;6219887;23;20013;-80
2022/03/29 11:34:57;;;;;;;27.42;12.35;;;13.00;99.90;;;;;;6219218;23;20012;-81
2022/03/29 11:37:33;;;;;;;28.88;13.43;;;12.90;99.90;;;;;;6216831;23;20015;-81
2022/03/29 11:40:02;;;;;;;28.15;13.57;;;12.90;99.90;;;;;;6193998;23;20306;-81
2022/03/29 11:42:46;;;;;;;31.60;13.82;;;12.70;99.90;;;;;;6223404;23;20477;-82
2022/03/29 11:45:14;;;;;;;32.50;14.50;;;12.50;99.90;;;;;;6221196;23;20023;-82
2022/03/29 11:47:50;;;;;;;29.35;12.98;;;12.60;99.90;;;;;;6223155;23;20024;-81
2022/03/29 11:50:49;;;;;;;35.97;14.98;;;12.80;99.90;;;;;;6224296;23;20016;-81
2022/03/29 11:53:32;;;;;;;28.13;14.02;;;12.90;99.90;;;;;;6222716;23;20020;-82
2022/03/29 11:56:08;;;;;;;32.25;14.15;;;13.10;99.90;;;;;;6226498;23;20024;-80
2022/03/29 11:58:54;;;;;;;34.83;13.88;;;13.00;99.90;;;;;;6212952;23;20019;-81
2022/03/29 12:01:27;;;;;;;29.30;13.00;;;12.90;99.90;;;;;;6228674;23;20035;-81
2022/03/29 12:03:57;;;;;;;22.67;12.25;;;13.10;99.90;;;;;;6188893;23;20023;-81
2022/03/29 12:06:45;;;;;;;28.42;13.80;;;13.10;99.90;;;;;;6215128;23;20009;-81
2022/03/29 12:09:12;;;;;;;31.33;14.75;;;13.30;99.90;;;;;;6213931;23;20390;-81
2022/03/29 12:11:40;;;;;;;31.08;13.48;;;13.50;99.90;;;;;;6215426;23;20013;-82
2022/03/29 12:14:19;;;;;;;31.30;13.82;;;13.70;99.90;;;;;;6189006;23;20020;-82
2022/03/29 12:16:48;;;;;;;25.35;12.90;;;13.90;99.90;;;;;;6189261;23;20020;-82
2022/03/29 12:19:22;;;;;;;27.95;13.95;;;14.10;99.90;;;;;;6214488;23;20458;-82
2022/03/29 12:21:51;;;;;;;33.13;14.68;;;14.30;99.90;;;;;;6214079;23;20397;-82
2022/03/29 12:24:18;;;;;;;33.20;13.10;;;14.40;99.90;;;;;;6189694;23;20008;-81
2022/03/29 12:26:51;;;;;;;32.55;14.25;;;14.40;99.90;;;;;;6189362;23;20012;-82
2022/03/29 12:29:22;;;;;;;30.92;14.50;;;14.40;99.90;;;;;;6188851;23;20016;-80
2022/03/29 12:31:48;;;;;;;30.38;13.70;;;14.00;99.90;;;;;;6189693;23;20020;-82
2022/03/29 12:34:19;;;;;;;32.20;14.00;;;13.90;99.90;;;;;;6214368;23;20015;-81
2022/03/29 12:36:53;;;;;;;25.80;13.45;;;13.70;99.90;;;;;;6188993;23;20008;-82
2022/03/29 12:39:19;;;;;;;29.60;14.85;;;13.50;99.90;;;;;;6215769;23;20080;-81
2022/03/29 12:41:48;;;;;;;25.58;13.27;;;13.40;99.90;;;;;;6213664;23;20017;-82
2022/03/29 12:44:35;;;;;;;26.77;13.25;;;13.40;99.90;;;;;;6213906;23;20021;-82
2022/03/29 12:47:01;;;;;;;26.92;13.45;;;13.30;99.90;;;;;;6214485;23;20021;-82
2022/03/29 12:49:27;;;;;;;21.83;12.10;;;13.20;99.90;;;;;;6216040;23;20039;-82